Main page
METAR-TAF:

METAR-TAF

Airports :

Bearce Airport

Mount Ida, Arkansas, United States

latitude: 34-33N, longitude: 093-35W, elevation: 702 ft

Current weather observation

The report was made 27 minutes ago, at 13:53 UTC
Calm wind
Temperature 34°F
Humidity 86%
Pressure 30.24 in. Hg
Visibility: 10 miles
Clear sky

METAR: KMWT 291353Z AUTO 00000KT 10SM CLR 01/M01 A3024 RMK AO2 SLP248 T00111006 $

Time: 08:20 (14:20 UTC)


TAF: missing

Weather observations and forecasts of more than 4000 airports (METAR and TAF reports).

The available stations are represented by yellow and red dots on the map.

Hover mouse over dot to see the name of the station.

Then click to see weather observations and forecasts.

To change the map : click on the green buttons with a black cross to zoom in, on the green button with a dash to zoom out, or on the green arrows for adjacent maps.


METAR-TAF: